^^
Grace C. Lehan Memorial Weather Station Historical Data
Daily Summary for April 14, 2021 Units:  Both    English   Metric
Daily Weekly Monthly Yearly
  High: Low: Average:
Temperature: 77.8 °F /  25.4 °C 60.3 °F /  15.7 °C 69.6 °F /  20.9 °C
Dew Point: 64 °F /  17.8 °C 56.9 °F /  13.8 °C 59.9 °F /  15.5 °C
Humidity: 90.3% 54.6% 72%
Wind Speed: 2mph /  3.2km/h - 0.1mph /  0.2km/h
Wind Gust: 6mph /  9.7km/h - -
Wind- - SSE
Pressure: 30.08 in /  1018.5 hPa 29.98 in /  1015.1 hPa -
Precipitation: 0.00 in /  0 mm    
 
 
Tabular Data for April 14, 2021
Time Temperature Dew Point Pressure Wind Wind Speed Wind Gust Humidity Rainfall Rate (Hourly) solar
00:00 66.6 °F /  19.2 °C 60.3 °F /  15.7 °C 29.98in /  1015.1hPa Calm     80% 0.00in /  0mm 0 W/m2
00:09 66.5 °F /  19.2 °C 59.8 °F /  15.4 °C 29.98in /  1015.1hPa Calm     79% 0.00in /  0mm 0 W/m2
00:14 66.4 °F /  19.1 °C 59.9 °F /  15.5 °C 29.98in /  1015.1hPa Calm     79.5% 0.00in /  0mm 0 W/m2
00:19 66.4 °F /  19.1 °C 60 °F /  15.6 °C 29.99in /  1015.5hPa Calm     80% 0.00in /  0mm 0 W/m2
00:24 66.3 °F /  19.1 °C 59.9 °F /  15.5 °C 29.99in /  1015.5hPa Calm     80% 0.00in /  0mm 0 W/m2
00:29 66.2 °F /  19 °C 59.8 °F /  15.4 °C 29.99in /  1015.5hPa Calm     80% 0.00in /  0mm 0 W/m2
00:34 66.1 °F /  18.9 °C 59.8 °F /  15.4 °C 30.00in /  1015.8hPa Calm     80% 0.00in /  0mm 0 W/m2
00:39 66 °F /  18.9 °C 59.7 °F /  15.4 °C 30.00in /  1015.8hPa Calm     80% 0.00in /  0mm 0 W/m2
00:44 66 °F /  18.9 °C 59.3 °F /  15.2 °C 30.00in /  1015.8hPa Calm     79% 0.00in /  0mm 0 W/m2
00:49 66 °F /  18.9 °C 59.2 °F /  15.1 °C 30.00in /  1015.8hPa Calm     78.9% 0.00in /  0mm 0 W/m2
00:53 65.9 °F /  18.8 °C 58.9 °F /  14.9 °C 30.00in /  1015.8hPa Calm     78% 0.00in /  0mm 0 W/m2
00:59 65.9 °F /  18.8 °C 58.9 °F /  14.9 °C 30.01in /  1016.1hPa Calm     78% 0.00in /  0mm 0 W/m2
01:04 65.9 °F /  18.8 °C 59.2 °F /  15.1 °C 30.01in /  1016.1hPa Calm     78.9% 0.00in /  0mm 0 W/m2
01:09 65.9 °F /  18.8 °C 59.4 °F /  15.2 °C 30.01in /  1016.1hPa Calm     79.5% 0.00in /  0mm 0 W/m2
01:14 65.8 °F /  18.8 °C 59.4 °F /  15.2 °C 30.01in /  1016.1hPa Calm     80% 0.00in /  0mm 0 W/m2
01:19 65.6 °F /  18.7 °C 58.8 °F /  14.9 °C 30.01in /  1016.1hPa Calm     78.9% 0.00in /  0mm 0 W/m2
01:24 65.3 °F /  18.5 °C 58.1 °F /  14.5 °C 30.01in /  1016.1hPa Calm     77.4% 0.00in /  0mm 0 W/m2
01:29 65.2 °F /  18.4 °C 58 °F /  14.4 °C 30.02in /  1016.5hPa ENE 0.1mph /  0.2km/h 2mph /  3.2km/h 77.6% 0.00in /  0mm 0 W/m2
01:34 65.2 °F /  18.4 °C 57.8 °F /  14.3 °C 30.02in /  1016.5hPa ENE 0.2mph /  0.3km/h 3mph /  4.8km/h 77% 0.00in /  0mm 0 W/m2
01:39 65.1 °F /  18.4 °C 58 °F /  14.4 °C 30.02in /  1016.5hPa WNW 0.9mph /  1.4km/h 6mph /  9.7km/h 77.7% 0.00in /  0mm 0 W/m2
01:44 65 °F /  18.3 °C 58.2 °F /  14.6 °C 30.02in /  1016.5hPa West 0.8mph /  1.3km/h 6mph /  9.7km/h 78.6% 0.00in /  0mm 0 W/m2
01:49 64.9 °F /  18.3 °C 58.2 °F /  14.6 °C 30.02in /  1016.5hPa West 0.9mph /  1.4km/h 6mph /  9.7km/h 78.7% 0.00in /  0mm 0 W/m2
01:54 64.8 °F /  18.2 °C 58 °F /  14.4 °C 30.02in /  1016.5hPa West 0.5mph /  0.8km/h 6mph /  9.7km/h 78.4% 0.00in /  0mm 0 W/m2
01:59 64.8 °F /  18.2 °C 57.9 °F /  14.4 °C 30.02in /  1016.5hPa Calm   6mph /  9.7km/h 78.4% 0.00in /  0mm 0 W/m2
02:04 64.7 °F /  18.2 °C 58 °F /  14.4 °C 30.02in /  1016.5hPa Calm   6mph /  9.7km/h 79% 0.00in /  0mm 0 W/m2
02:09 64.6 °F /  18.1 °C 58 °F /  14.4 °C 30.03in /  1016.8hPa Calm     79% 0.00in /  0mm 0 W/m2
02:14 64.5 °F /  18.1 °C 57.9 °F /  14.4 °C 30.03in /  1016.8hPa Calm     79% 0.00in /  0mm 0 W/m2
02:19 64.5 °F /  18.1 °C 58 °F /  14.4 °C 30.03in /  1016.8hPa Calm     79.4% 0.00in /  0mm 0 W/m2
02:24 64.4 °F /  18 °C 57.7 °F /  14.3 °C 30.03in /  1016.8hPa Calm     79% 0.00in /  0mm 0 W/m2
02:29 64.3 °F /  17.9 °C 57.7 °F /  14.3 °C 30.03in /  1016.8hPa Calm     79.1% 0.00in /  0mm 0 W/m2
02:34 64.3 °F /  17.9 °C 58 °F /  14.4 °C 30.02in /  1016.5hPa Calm     80% 0.00in /  0mm 0 W/m2
02:39 64.2 °F /  17.9 °C 57.7 °F /  14.3 °C 30.03in /  1016.8hPa Calm     79.2% 0.00in /  0mm 0 W/m2
02:44 64.2 °F /  17.9 °C 57.6 °F /  14.2 °C 30.04in /  1017.2hPa Calm     79% 0.00in /  0mm 0 W/m2
02:49 64.2 °F /  17.9 °C 57.7 °F /  14.3 °C 30.04in /  1017.2hPa Calm     79.4% 0.00in /  0mm 0 W/m2
02:54 64.3 °F /  17.9 °C 57.7 °F /  14.3 °C 30.04in /  1017.2hPa Calm     79% 0.00in /  0mm 0 W/m2
02:59 64.4 °F /  18 °C 57.8 °F /  14.3 °C 30.04in /  1017.2hPa Calm     79% 0.00in /  0mm 0 W/m2
03:04 64.5 °F /  18.1 °C 57.9 °F /  14.4 °C 30.03in /  1016.8hPa Calm     79% 0.00in /  0mm 0 W/m2
03:09 64.6 °F /  18.1 °C 57.9 °F /  14.4 °C 30.03in /  1016.8hPa Calm     79% 0.00in /  0mm 0 W/m2
03:14 64.6 °F /  18.1 °C 58 °F /  14.4 °C 30.03in /  1016.8hPa Calm     79% 0.00in /  0mm 0 W/m2
03:19 64.6 °F /  18.1 °C 58 °F /  14.4 °C 30.04in /  1017.2hPa Calm     79% 0.00in /  0mm 0 W/m2
03:24 64.5 °F /  18.1 °C 57.9 °F /  14.4 °C 30.03in /  1016.8hPa Calm     79% 0.00in /  0mm 0 W/m2
03:29 64.5 °F /  18.1 °C 57.8 °F /  14.3 °C 30.03in /  1016.8hPa Calm     79% 0.00in /  0mm 0 W/m2
03:34 64.4 °F /  18 °C 57.8 °F /  14.3 °C 30.03in /  1016.8hPa Calm     79% 0.00in /  0mm 0 W/m2
03:39 64.3 °F /  17.9 °C 57.8 °F /  14.3 °C 30.03in /  1016.8hPa Calm     79.3% 0.00in /  0mm 0 W/m2
03:44 64.3 °F /  17.9 °C 58 °F /  14.4 °C 30.03in /  1016.8hPa Calm     80% 0.00in /  0mm 0 W/m2
03:49 64.2 °F /  17.9 °C 58.1 °F /  14.5 °C 30.03in /  1016.8hPa Calm     80.6% 0.00in /  0mm 0 W/m2
03:54 64.1 °F /  17.8 °C 58.1 °F /  14.5 °C 30.03in /  1016.8hPa Calm     81% 0.00in /  0mm 0 W/m2
03:59 64 °F /  17.8 °C 58.1 °F /  14.5 °C 30.03in /  1016.8hPa Calm     81% 0.00in /  0mm 0 W/m2
04:00 64 °F /  17.8 °C 58.1 °F /  14.5 °C 30.03in /  1016.8hPa Calm     81% 0.00in /  0mm 0 W/m2
04:09 63.8 °F /  17.7 °C 57.9 °F /  14.4 °C 30.03in /  1016.8hPa Calm     81% 0.00in /  0mm 0 W/m2
04:14 63.7 °F /  17.6 °C 58.2 °F /  14.6 °C 30.03in /  1016.8hPa Calm     82% 0.00in /  0mm 0 W/m2
04:19 63.6 °F /  17.6 °C 58 °F /  14.4 °C 30.03in /  1016.8hPa Calm     82% 0.00in /  0mm 0 W/m2
04:24 63.5 °F /  17.5 °C 58 °F /  14.4 °C 30.02in /  1016.5hPa Calm     82.1% 0.00in /  0mm 0 W/m2
04:29 63.4 °F /  17.4 °C 58.2 °F /  14.6 °C 30.02in /  1016.5hPa Calm     83% 0.00in /  0mm 0 W/m2
04:34 63.3 °F /  17.4 °C 58.1 °F /  14.5 °C 30.02in /  1016.5hPa Calm     83% 0.00in /  0mm 0 W/m2
04:39 63.2 °F /  17.3 °C 57.9 °F /  14.4 °C 30.02in /  1016.5hPa Calm     83% 0.00in /  0mm 0 W/m2
04:44 63 °F /  17.2 °C 57.8 °F /  14.3 °C 30.01in /  1016.1hPa Calm     83% 0.00in /  0mm 0 W/m2
04:49 62.9 °F /  17.2 °C 57.7 °F /  14.3 °C 30.01in /  1016.1hPa Calm     83% 0.00in /  0mm 0 W/m2
04:54 62.8 °F /  17.1 °C 57.8 °F /  14.3 °C 30.01in /  1016.1hPa Calm     83.8% 0.00in /  0mm 0 W/m2
04:59 62.6 °F /  17 °C 57.7 °F /  14.3 °C 30.02in /  1016.5hPa Calm     84% 0.00in /  0mm 0 W/m2
05:04 62.5 °F /  16.9 °C 57.6 °F /  14.2 °C 30.02in /  1016.5hPa Calm     84% 0.00in /  0mm 0 W/m2
05:09 62.3 °F /  16.8 °C 57.7 °F /  14.3 °C 30.02in /  1016.5hPa Calm     84.9% 0.00in /  0mm 0 W/m2
05:14 62.2 °F /  16.8 °C 57.7 °F /  14.3 °C 30.02in /  1016.5hPa Calm     85% 0.00in /  0mm 0 W/m2
05:19 62 °F /  16.7 °C 57.5 °F /  14.2 °C 30.02in /  1016.5hPa Calm     85% 0.00in /  0mm 0 W/m2
05:24 61.9 °F /  16.6 °C 57.7 °F /  14.3 °C 30.02in /  1016.5hPa Calm     86% 0.00in /  0mm 0 W/m2
05:29 61.8 °F /  16.6 °C 57.5 °F /  14.2 °C 30.02in /  1016.5hPa Calm     86% 0.00in /  0mm 0 W/m2
05:34 61.6 °F /  16.4 °C 57.4 °F /  14.1 °C 30.03in /  1016.8hPa Calm     86% 0.00in /  0mm 0 W/m2
05:39 61.5 °F /  16.4 °C 57.5 °F /  14.2 °C 30.04in /  1017.2hPa Calm     86.7% 0.00in /  0mm 0 W/m2
05:44 61.4 °F /  16.3 °C 57.5 °F /  14.2 °C 30.05in /  1017.5hPa Calm     87% 0.00in /  0mm 0 W/m2
05:49 61.2 °F /  16.2 °C 57.4 °F /  14.1 °C 30.05in /  1017.5hPa Calm     87.4% 0.00in /  0mm 0 W/m2
05:54 61 °F /  16.1 °C 57.1 °F /  13.9 °C 30.05in /  1017.5hPa Calm     87% 0.00in /  0mm 0 W/m2
05:59 60.9 °F /  16.1 °C 57 °F /  13.9 °C 30.05in /  1017.5hPa Calm     87% 0.00in /  0mm 0 W/m2
06:04 60.7 °F /  15.9 °C 57.1 °F /  13.9 °C 30.05in /  1017.5hPa Calm     87.9% 0.00in /  0mm 0 W/m2
06:09 60.6 °F /  15.9 °C 57.1 °F /  13.9 °C 30.06in /  1017.8hPa Calm     88% 0.00in /  0mm 0 W/m2
06:14 60.6 °F /  15.9 °C 57 °F /  13.9 °C 30.06in /  1017.8hPa Calm     88% 0.00in /  0mm 0 W/m2
06:19 60.5 °F /  15.8 °C 56.9 °F /  13.8 °C 30.06in /  1017.8hPa Calm     88% 0.00in /  0mm 0 W/m2
06:24 60.4 °F /  15.8 °C 57.1 °F /  13.9 °C 30.06in /  1017.8hPa Calm     88.6% 0.00in /  0mm 7 W/m2
06:29 60.4 °F /  15.8 °C 57.1 °F /  13.9 °C 30.06in /  1017.8hPa Calm     89% 0.00in /  0mm 11 W/m2
06:34 60.3 °F /  15.7 °C 57.1 °F /  13.9 °C 30.06in /  1017.8hPa Calm     89% 0.00in /  0mm 11 W/m2
06:39 60.3 °F /  15.7 °C 57.1 °F /  13.9 °C 30.05in /  1017.5hPa Calm     89% 0.00in /  0mm 14 W/m2
06:44 60.3 °F /  15.7 °C 57.2 °F /  14 °C 30.04in /  1017.2hPa Calm     89.3% 0.00in /  0mm 18 W/m2
06:49 60.4 °F /  15.8 °C 57.4 °F /  14.1 °C 30.03in /  1016.8hPa Calm     89.7% 0.00in /  0mm 23 W/m2
06:54 60.4 °F /  15.8 °C 57.5 °F /  14.2 °C 30.03in /  1016.8hPa Calm     90% 0.00in /  0mm 23 W/m2
06:59 60.5 °F /  15.8 °C 57.5 °F /  14.2 °C 30.03in /  1016.8hPa Calm     90% 0.00in /  0mm 18 W/m2
07:04 60.6 °F /  15.9 °C 57.6 °F /  14.2 °C 30.04in /  1017.2hPa Calm     90% 0.00in /  0mm 16 W/m2
07:09 60.7 °F /  15.9 °C 57.7 °F /  14.3 °C 30.04in /  1017.2hPa Calm     90% 0.00in /  0mm 18 W/m2
07:14 60.7 °F /  15.9 °C 57.8 °F /  14.3 °C 30.03in /  1016.8hPa Calm     90% 0.00in /  0mm 19 W/m2
07:19 60.7 °F /  15.9 °C 57.8 °F /  14.3 °C 30.03in /  1016.8hPa Calm     90% 0.00in /  0mm 21 W/m2
07:24 60.8 °F /  16 °C 57.9 °F /  14.4 °C 30.04in /  1017.2hPa Calm     90% 0.00in /  0mm 26 W/m2
07:29 60.9 °F /  16.1 °C 58 °F /  14.4 °C 30.05in /  1017.5hPa West 0.4mph /  0.6km/h 4mph /  6.4km/h 90% 0.00in /  0mm 28 W/m2
07:34 61.1 °F /  16.2 °C 58.1 °F /  14.5 °C 30.06in /  1017.8hPa Calm   4mph /  6.4km/h 90% 0.00in /  0mm 30 W/m2
07:39 61.2 °F /  16.2 °C 58.3 °F /  14.6 °C 30.06in /  1017.8hPa West 0.5mph /  0.8km/h 4mph /  6.4km/h 90.3% 0.00in /  0mm 33 W/m2
07:44 61.2 °F /  16.2 °C 58.2 °F /  14.6 °C 30.06in /  1017.8hPa West 0.2mph /  0.3km/h 4mph /  6.4km/h 89.8% 0.00in /  0mm 35 W/m2
07:49 61.4 °F /  16.3 °C 58.1 °F /  14.5 °C 30.07in /  1018.2hPa West 0.1mph /  0.2km/h 4mph /  6.4km/h 89% 0.00in /  0mm 39 W/m2
07:54 61.6 °F /  16.4 °C 58.3 °F /  14.6 °C 30.07in /  1018.2hPa West 0.1mph /  0.2km/h 4mph /  6.4km/h 89% 0.00in /  0mm 42 W/m2
07:59 61.9 °F /  16.6 °C 58.5 °F /  14.7 °C 30.08in /  1018.5hPa Calm   4mph /  6.4km/h 88.8% 0.00in /  0mm 46 W/m2
08:04 62.3 °F /  16.8 °C 58.7 °F /  14.8 °C 30.07in /  1018.2hPa Calm     88% 0.00in /  0mm 46 W/m2
08:09 62.5 °F /  16.9 °C 58.7 °F /  14.8 °C 30.07in /  1018.2hPa Calm     87.5% 0.00in /  0mm 51 W/m2
08:14 62.8 °F /  17.1 °C 58.7 °F /  14.8 °C 30.07in /  1018.2hPa Calm     86.4% 0.00in /  0mm 58 W/m2
08:19 63.2 °F /  17.3 °C 58.9 °F /  14.9 °C 30.07in /  1018.2hPa Calm     85.9% 0.00in /  0mm 63 W/m2
08:24 63.6 °F /  17.6 °C 58.7 °F /  14.8 °C 30.07in /  1018.2hPa Calm     84.2% 0.00in /  0mm 74 W/m2
08:29 64 °F /  17.8 °C 59 °F /  15 °C 30.07in /  1018.2hPa West 0.1mph /  0.2km/h 2mph /  3.2km/h 83.6% 0.00in /  0mm 88 W/m2
08:34 64.4 °F /  18 °C 58.9 °F /  14.9 °C 30.07in /  1018.2hPa Calm   2mph /  3.2km/h 82.1% 0.00in /  0mm 225 W/m2
08:39 64.9 °F /  18.3 °C 59.3 °F /  15.2 °C 30.08in /  1018.5hPa Calm   1mph /  1.6km/h 82% 0.00in /  0mm 257 W/m2
08:44 65.3 °F /  18.5 °C 59.1 °F /  15.1 °C 30.08in /  1018.5hPa Calm   1mph /  1.6km/h 80.4% 0.00in /  0mm 241 W/m2
08:49 65.7 °F /  18.7 °C 59.1 °F /  15.1 °C 30.08in /  1018.5hPa Calm   1mph /  1.6km/h 79% 0.00in /  0mm 230 W/m2
08:54 66.2 °F /  19 °C 59.4 °F /  15.2 °C 30.07in /  1018.2hPa Calm   1mph /  1.6km/h 78.7% 0.00in /  0mm 230 W/m2
08:59 66.7 °F /  19.3 °C 59.5 °F /  15.3 °C 30.07in /  1018.2hPa Calm   1mph /  1.6km/h 77.8% 0.00in /  0mm 223 W/m2
09:04 67.1 °F /  19.5 °C 59.6 °F /  15.3 °C 30.07in /  1018.2hPa NW 0.2mph /  0.3km/h 2mph /  3.2km/h 76.8% 0.00in /  0mm 373 W/m2
09:09 67.6 °F /  19.8 °C 59.7 °F /  15.4 °C 30.08in /  1018.5hPa NNW 0.1mph /  0.2km/h 2mph /  3.2km/h 75.7% 0.00in /  0mm 383 W/m2
09:14 68.1 °F /  20.1 °C 60 °F /  15.6 °C 30.08in /  1018.5hPa Calm   2mph /  3.2km/h 75.3% 0.00in /  0mm 192 W/m2
09:19 68.5 °F /  20.3 °C 60 °F /  15.6 °C 30.07in /  1018.2hPa NNE 0.5mph /  0.8km/h 3mph /  4.8km/h 74.3% 0.00in /  0mm 211 W/m2
09:24 68.8 °F /  20.4 °C 60.1 °F /  15.6 °C 30.07in /  1018.2hPa NNE 0.2mph /  0.3km/h 4mph /  6.4km/h 74% 0.00in /  0mm 468 W/m2
09:29 69.3 °F /  20.7 °C 60 °F /  15.6 °C 30.07in /  1018.2hPa Calm   4mph /  6.4km/h 72.4% 0.00in /  0mm 482 W/m2
09:34 69.9 °F /  21.1 °C 60.8 °F /  16 °C 30.07in /  1018.2hPa Calm   4mph /  6.4km/h 72.7% 0.00in /  0mm 482 W/m2
09:39 70.3 °F /  21.3 °C 60.6 °F /  15.9 °C 30.08in /  1018.5hPa Calm     71.4% 0.00in /  0mm 336 W/m2
09:44 70.4 °F /  21.3 °C 60.1 °F /  15.6 °C 30.07in /  1018.2hPa ENE 1.5mph /  2.4km/h 5mph /  8km/h 69.8% 0.00in /  0mm 336 W/m2
09:49 70.3 °F /  21.3 °C 59.5 °F /  15.3 °C 30.07in /  1018.2hPa ENE 0.3mph /  0.5km/h 5mph /  8km/h 68.7% 0.00in /  0mm 306 W/m2
09:54 70.2 °F /  21.2 °C 60.1 °F /  15.6 °C 30.07in /  1018.2hPa East 1.2mph /  1.9km/h 5mph /  8km/h 70.4% 0.00in /  0mm 443 W/m2
09:59 70 °F /  21.1 °C 59.4 °F /  15.2 °C 30.07in /  1018.2hPa East 0.8mph /  1.3km/h 5mph /  8km/h 69.3% 0.00in /  0mm 367 W/m2
10:04 70 °F /  21.1 °C 60.3 °F /  15.7 °C 30.08in /  1018.5hPa East 0.1mph /  0.2km/h 5mph /  8km/h 71.2% 0.00in /  0mm 503 W/m2
10:09 70.5 °F /  21.4 °C 60.9 °F /  16.1 °C 30.08in /  1018.5hPa Calm   2mph /  3.2km/h 71.8% 0.00in /  0mm 519 W/m2
10:14 70.9 °F /  21.6 °C 60.5 °F /  15.8 °C 30.08in /  1018.5hPa East 0.5mph /  0.8km/h 4mph /  6.4km/h 69.6% 0.00in /  0mm 461 W/m2
10:19 70.9 °F /  21.6 °C 60.4 °F /  15.8 °C 30.08in /  1018.5hPa Calm   4mph /  6.4km/h 69.3% 0.00in /  0mm 381 W/m2
10:24 71.2 °F /  21.8 °C 60.9 °F /  16.1 °C 30.08in /  1018.5hPa Calm   4mph /  6.4km/h 70% 0.00in /  0mm 605 W/m2
10:29 71.7 °F /  22.1 °C 61.5 °F /  16.4 °C 30.08in /  1018.5hPa NE 0.3mph /  0.5km/h 4mph /  6.4km/h 70.3% 0.00in /  0mm 619 W/m2
10:34 72.5 °F /  22.5 °C 61.8 °F /  16.6 °C 30.07in /  1018.2hPa NE 0.1mph /  0.2km/h 4mph /  6.4km/h 69.1% 0.00in /  0mm 568 W/m2
10:39 73.1 °F /  22.8 °C 62 °F /  16.7 °C 30.07in /  1018.2hPa Calm   2mph /  3.2km/h 68.2% 0.00in /  0mm 552 W/m2
10:44 73.6 °F /  23.1 °C 61.1 °F /  16.2 °C 30.07in /  1018.2hPa Calm   2mph /  3.2km/h 65.1% 0.00in /  0mm 578 W/m2
10:49 74.1 °F /  23.4 °C 61.1 °F /  16.2 °C 30.07in /  1018.2hPa Calm   2mph /  3.2km/h 64.1% 0.00in /  0mm 608 W/m2
10:54 74.3 °F /  23.5 °C 60.6 °F /  15.9 °C 30.07in /  1018.2hPa Calm   2mph /  3.2km/h 62.5% 0.00in /  0mm 533 W/m2
10:59 74.4 °F /  23.6 °C 60.9 °F /  16.1 °C 30.07in /  1018.2hPa Calm   2mph /  3.2km/h 62.8% 0.00in /  0mm 438 W/m2
11:04 74.5 °F /  23.6 °C 61.7 °F /  16.5 °C 30.07in /  1018.2hPa Calm   2mph /  3.2km/h 64.5% 0.00in /  0mm 469 W/m2
11:09 74.6 °F /  23.7 °C 61.9 °F /  16.6 °C 30.07in /  1018.2hPa Calm     64.5% 0.00in /  0mm 640 W/m2
11:14 74.7 °F /  23.7 °C 60.9 °F /  16.1 °C 30.07in /  1018.2hPa NE 0.2mph /  0.3km/h 2mph /  3.2km/h 62.2% 0.00in /  0mm 612 W/m2
11:19 74.8 °F /  23.8 °C 61.7 °F /  16.5 °C 30.07in /  1018.2hPa NE 0.1mph /  0.2km/h 2mph /  3.2km/h 63.6% 0.00in /  0mm 573 W/m2
11:24 75.2 °F /  24 °C 61.4 °F /  16.3 °C 30.06in /  1017.8hPa Calm   2mph /  3.2km/h 62.3% 0.00in /  0mm 601 W/m2
11:29 75.5 °F /  24.2 °C 60.4 °F /  15.8 °C 30.06in /  1017.8hPa Calm   2mph /  3.2km/h 59.6% 0.00in /  0mm 612 W/m2
11:34 75.6 °F /  24.2 °C 60.2 °F /  15.7 °C 30.06in /  1017.8hPa NE 0.1mph /  0.2km/h 2mph /  3.2km/h 58.7% 0.00in /  0mm 622 W/m2
11:39 75.9 °F /  24.4 °C 60.3 °F /  15.7 °C 30.06in /  1017.8hPa Calm   2mph /  3.2km/h 58.4% 0.00in /  0mm 587 W/m2
11:44 76 °F /  24.4 °C 60.7 °F /  15.9 °C 30.05in /  1017.5hPa Calm   2mph /  3.2km/h 59% 0.00in /  0mm 272 W/m2
11:49 76.1 °F /  24.5 °C 60.6 °F /  15.9 °C 30.05in /  1017.5hPa Calm   2mph /  3.2km/h 58.7% 0.00in /  0mm 202 W/m2
11:54 76.1 °F /  24.5 °C 61 °F /  16.1 °C 30.05in /  1017.5hPa Calm   2mph /  3.2km/h 59.6% 0.00in /  0mm 192 W/m2
11:59 76.2 °F /  24.6 °C 61.1 °F /  16.2 °C 30.05in /  1017.5hPa NE 0.1mph /  0.2km/h 2mph /  3.2km/h 59.7% 0.00in /  0mm 206 W/m2
12:00 76.2 °F /  24.6 °C 60.4 °F /  15.8 °C 30.05in /  1017.5hPa NE 2mph /  3.2km/h 2mph /  3.2km/h 58% 0.00in /  0mm 206 W/m2
12:09 76.3 °F /  24.6 °C 61.6 °F /  16.4 °C 30.05in /  1017.5hPa NE 0.2mph /  0.3km/h 2mph /  3.2km/h 60.5% 0.00in /  0mm 204 W/m2
12:14 76.6 °F /  24.8 °C 62.5 °F /  16.9 °C 30.04in /  1017.2hPa Calm   2mph /  3.2km/h 61.8% 0.00in /  0mm 204 W/m2
12:19 76.7 °F /  24.8 °C 61.5 °F /  16.4 °C 30.05in /  1017.5hPa NE 0.3mph /  0.5km/h 3mph /  4.8km/h 59.5% 0.00in /  0mm 211 W/m2
12:24 76.7 °F /  24.8 °C 60.7 °F /  15.9 °C 30.04in /  1017.2hPa Calm   3mph /  4.8km/h 57.8% 0.00in /  0mm 214 W/m2
12:29 76.4 °F /  24.7 °C 60.6 °F /  15.9 °C 30.05in /  1017.5hPa ESE 0.2mph /  0.3km/h 5mph /  8km/h 58.1% 0.00in /  0mm 211 W/m2
12:34 76.2 °F /  24.6 °C 59.2 °F /  15.1 °C 30.04in /  1017.2hPa ESE 0.2mph /  0.3km/h 5mph /  8km/h 55.6% 0.00in /  0mm 415 W/m2
12:39 76.2 °F /  24.6 °C 58.9 °F /  14.9 °C 30.04in /  1017.2hPa ESE 0.1mph /  0.2km/h 3mph /  4.8km/h 55.1% 0.00in /  0mm 455 W/m2
12:44 76.3 °F /  24.6 °C 59.3 °F /  15.2 °C 30.04in /  1017.2hPa ESE 0.1mph /  0.2km/h 3mph /  4.8km/h 55.6% 0.00in /  0mm 265 W/m2
12:49 76.6 °F /  24.8 °C 59.4 °F /  15.2 °C 30.04in /  1017.2hPa Calm   3mph /  4.8km/h 55.2% 0.00in /  0mm 174 W/m2
12:54 76.7 °F /  24.8 °C 59.1 °F /  15.1 °C 30.04in /  1017.2hPa ESE 0.1mph /  0.2km/h 3mph /  4.8km/h 54.6% 0.00in /  0mm 185 W/m2
12:59 76.5 °F /  24.7 °C 59.9 °F /  15.5 °C 30.04in /  1017.2hPa ESE 0.1mph /  0.2km/h 3mph /  4.8km/h 56.4% 0.00in /  0mm 225 W/m2
13:04 76.6 °F /  24.8 °C 60 °F /  15.6 °C 30.04in /  1017.2hPa SE 0.2mph /  0.3km/h 3mph /  4.8km/h 56.5% 0.00in /  0mm 225 W/m2
13:09 76.8 °F /  24.9 °C 60.5 °F /  15.8 °C 30.03in /  1016.8hPa SE 0.3mph /  0.5km/h 2mph /  3.2km/h 57.1% 0.00in /  0mm 200 W/m2
13:14 77 °F /  25 °C 60.5 °F /  15.8 °C 30.03in /  1016.8hPa Calm   2mph /  3.2km/h 56.9% 0.00in /  0mm 200 W/m2
13:19 77.1 °F /  25.1 °C 61.2 °F /  16.2 °C 30.03in /  1016.8hPa Calm   2mph /  3.2km/h 57.9% 0.00in /  0mm 197 W/m2
13:24 77.2 °F /  25.1 °C 60.6 °F /  15.9 °C 30.03in /  1016.8hPa Calm   2mph /  3.2km/h 56.5% 0.00in /  0mm 185 W/m2
13:29 77.2 °F /  25.1 °C 60.8 °F /  16 °C 30.03in /  1016.8hPa SSW 0.2mph /  0.3km/h 4mph /  6.4km/h 57% 0.00in /  0mm 223 W/m2
13:34 77.2 °F /  25.1 °C 60.6 °F /  15.9 °C 30.03in /  1016.8hPa SW 0.1mph /  0.2km/h 4mph /  6.4km/h 56.5% 0.00in /  0mm 253 W/m2
13:39 77.1 °F /  25.1 °C 60.6 °F /  15.9 °C 30.03in /  1016.8hPa Calm   2mph /  3.2km/h 57% 0.00in /  0mm 322 W/m2
13:44 77.1 °F /  25.1 °C 61.7 °F /  16.5 °C 30.03in /  1016.8hPa Calm   2mph /  3.2km/h 59% 0.00in /  0mm 318 W/m2
13:49 77.3 °F /  25.2 °C 61.8 °F /  16.6 °C 30.03in /  1016.8hPa Calm   2mph /  3.2km/h 58.8% 0.00in /  0mm 294 W/m2
13:54 77.5 °F /  25.3 °C 62.1 °F /  16.7 °C 30.03in /  1016.8hPa SSW 0.1mph /  0.2km/h 2mph /  3.2km/h 59.2% 0.00in /  0mm 241 W/m2
13:59 77.5 °F /  25.3 °C 61.2 °F /  16.2 °C 30.02in /  1016.5hPa SSW 0.3mph /  0.5km/h 2mph /  3.2km/h 57.2% 0.00in /  0mm 230 W/m2
14:04 77.4 °F /  25.2 °C 60.8 °F /  16 °C 30.02in /  1016.5hPa Calm   2mph /  3.2km/h 56.7% 0.00in /  0mm 204 W/m2
14:09 77.2 °F /  25.1 °C 61.2 °F /  16.2 °C 30.02in /  1016.5hPa Calm     57.8% 0.00in /  0mm 169 W/m2
14:14 77.1 °F /  25.1 °C 62.2 °F /  16.8 °C 30.02in /  1016.5hPa Calm   1mph /  1.6km/h 60.1% 0.00in /  0mm 216 W/m2
14:19 77.1 °F /  25.1 °C 62.6 °F /  17 °C 30.02in /  1016.5hPa Calm   1mph /  1.6km/h 61% 0.00in /  0mm 225 W/m2
14:24 77.1 °F /  25.1 °C 62.8 °F /  17.1 °C 30.02in /  1016.5hPa SSW 0.1mph /  0.2km/h 2mph /  3.2km/h 61.3% 0.00in /  0mm 202 W/m2
14:29 77.3 °F /  25.2 °C 62.9 °F /  17.2 °C 30.01in /  1016.1hPa Calm   2mph /  3.2km/h 61.3% 0.00in /  0mm 179 W/m2
14:34 77.4 °F /  25.2 °C 62.7 °F /  17.1 °C 30.01in /  1016.1hPa Calm   2mph /  3.2km/h 60.6% 0.00in /  0mm 206 W/m2
14:39 77.4 °F /  25.2 °C 62.5 °F /  16.9 °C 30.01in /  1016.1hPa Calm     60.2% 0.00in /  0mm 204 W/m2
14:44 77.5 °F /  25.3 °C 62.8 °F /  17.1 °C 30.01in /  1016.1hPa SSW 0.2mph /  0.3km/h 3mph /  4.8km/h 60.6% 0.00in /  0mm 195 W/m2
14:49 77.5 °F /  25.3 °C 63.2 °F /  17.3 °C 30.01in /  1016.1hPa Calm   3mph /  4.8km/h 61.3% 0.00in /  0mm 279 W/m2
14:54 77.6 °F /  25.3 °C 63 °F /  17.2 °C 30.01in /  1016.1hPa SW 0.1mph /  0.2km/h 3mph /  4.8km/h 60.6% 0.00in /  0mm 206 W/m2
14:59 77.8 °F /  25.4 °C 62.8 °F /  17.1 °C 30.01in /  1016.1hPa Calm   3mph /  4.8km/h 60.1% 0.00in /  0mm 153 W/m2
15:04 77.7 °F /  25.4 °C 63.1 °F /  17.3 °C 30.01in /  1016.1hPa Calm   3mph /  4.8km/h 60.8% 0.00in /  0mm 162 W/m2
15:09 77.7 °F /  25.4 °C 64 °F /  17.8 °C 30.01in /  1016.1hPa Calm   1mph /  1.6km/h 62.8% 0.00in /  0mm 178 W/m2
15:14 77.8 °F /  25.4 °C 63.9 °F /  17.7 °C 30.00in /  1015.8hPa Calm   1mph /  1.6km/h 62.4% 0.00in /  0mm 158 W/m2
15:19 77.7 °F /  25.4 °C 63.3 °F /  17.4 °C 30.00in /  1015.8hPa Calm   1mph /  1.6km/h 61.3% 0.00in /  0mm 178 W/m2
15:24 77.7 °F /  25.4 °C 63.9 °F /  17.7 °C 30.00in /  1015.8hPa Calm   1mph /  1.6km/h 62.5% 0.00in /  0mm 190 W/m2
15:29 77.7 °F /  25.4 °C 63.8 °F /  17.7 °C 30.00in /  1015.8hPa Calm   1mph /  1.6km/h 62.3% 0.00in /  0mm 183 W/m2
15:34 77.7 °F /  25.4 °C 63.8 °F /  17.7 °C 30.00in /  1015.8hPa SW 0.1mph /  0.2km/h 1mph /  1.6km/h 62.3% 0.00in /  0mm 181 W/m2
15:39 77.7 °F /  25.4 °C 63.7 °F /  17.6 °C 30.00in /  1015.8hPa SW 0.1mph /  0.2km/h 2mph /  3.2km/h 62% 0.00in /  0mm 176 W/m2
15:44 77.7 °F /  25.4 °C 63.4 °F /  17.4 °C 30.00in /  1015.8hPa SW 0.1mph /  0.2km/h 2mph /  3.2km/h 61.5% 0.00in /  0mm 171 W/m2
15:49 77.6 °F /  25.3 °C 63.3 °F /  17.4 °C 30.00in /  1015.8hPa SW 0.1mph /  0.2km/h 2mph /  3.2km/h 61.4% 0.00in /  0mm 172 W/m2
15:54 77.6 °F /  25.3 °C 63.5 °F /  17.5 °C 30.00in /  1015.8hPa SW 0.3mph /  0.5km/h 5mph /  8km/h 61.8% 0.00in /  0mm 149 W/m2
15:59 77.6 °F /  25.3 °C 63.1 °F /  17.3 °C 30.00in /  1015.8hPa SW 0.1mph /  0.2km/h 5mph /  8km/h 61.1% 0.00in /  0mm 135 W/m2
16:00 77.6 °F /  25.3 °C 63.1 °F /  17.3 °C 30.00in /  1015.8hPa South 2mph /  3.2km/h 5mph /  8km/h 61% 0.00in /  0mm 134 W/m2
16:09 77.4 °F /  25.2 °C 62.4 °F /  16.9 °C 30.00in /  1015.8hPa Calm   1mph /  1.6km/h 59.8% 0.00in /  0mm 179 W/m2
16:14 77.4 °F /  25.2 °C 61.8 °F /  16.6 °C 30.00in /  1015.8hPa Calm   1mph /  1.6km/h 58.6% 0.00in /  0mm 179 W/m2
16:19 77.4 °F /  25.2 °C 61.9 °F /  16.6 °C 30.00in /  1015.8hPa Calm   1mph /  1.6km/h 59% 0.00in /  0mm 156 W/m2
16:24 77.3 °F /  25.2 °C 61.6 °F /  16.4 °C 30.00in /  1015.8hPa Calm   1mph /  1.6km/h 58.5% 0.00in /  0mm 139 W/m2
16:29 77.2 °F /  25.1 °C 61.6 °F /  16.4 °C 30.00in /  1015.8hPa Calm   1mph /  1.6km/h 58.5% 0.00in /  0mm 123 W/m2
16:34 77.1 °F /  25.1 °C 61.3 °F /  16.3 °C 30.00in /  1015.8hPa Calm   1mph /  1.6km/h 58.2% 0.00in /  0mm 113 W/m2
16:39 76.9 °F /  24.9 °C 61.2 °F /  16.2 °C 30.00in /  1015.8hPa Calm   1mph /  1.6km/h 58.3% 0.00in /  0mm 127 W/m2
16:44 76.8 °F /  24.9 °C 60.8 °F /  16 °C 30.00in /  1015.8hPa Calm   1mph /  1.6km/h 57.7% 0.00in /  0mm 118 W/m2
16:49 76.7 °F /  24.8 °C 60.5 °F /  15.8 °C 30.00in /  1015.8hPa Calm   1mph /  1.6km/h 57.4% 0.00in /  0mm 100 W/m2
16:54 76.6 °F /  24.8 °C 60.9 °F /  16.1 °C 30.00in /  1015.8hPa South 0.1mph /  0.2km/h 2mph /  3.2km/h 58.4% 0.00in /  0mm 77 W/m2
16:59 76.4 °F /  24.7 °C 60.8 °F /  16 °C 30.00in /  1015.8hPa South 0.1mph /  0.2km/h 2mph /  3.2km/h 58.6% 0.00in /  0mm 70 W/m2
17:04 76.2 °F /  24.6 °C 61.3 °F /  16.3 °C 30.00in /  1015.8hPa Calm   2mph /  3.2km/h 59.9% 0.00in /  0mm 77 W/m2
17:09 76 °F /  24.4 °C 61.5 °F /  16.4 °C 30.00in /  1015.8hPa Calm   1mph /  1.6km/h 60.8% 0.00in /  0mm 93 W/m2
17:14 75.8 °F /  24.3 °C 61.1 °F /  16.2 °C 30.00in /  1015.8hPa South 0.1mph /  0.2km/h 2mph /  3.2km/h 60.5% 0.00in /  0mm 90 W/m2
17:19 75.6 °F /  24.2 °C 61.1 °F /  16.2 °C 29.99in /  1015.5hPa Calm   2mph /  3.2km/h 60.9% 0.00in /  0mm 77 W/m2
17:24 75.4 °F /  24.1 °C 61.1 °F /  16.2 °C 30.00in /  1015.8hPa South 0.1mph /  0.2km/h 3mph /  4.8km/h 61.1% 0.00in /  0mm 83 W/m2
17:29 75.2 °F /  24 °C 60.9 °F /  16.1 °C 30.00in /  1015.8hPa Calm   3mph /  4.8km/h 61% 0.00in /  0mm 83 W/m2
17:34 75.1 °F /  23.9 °C 61.3 °F /  16.3 °C 29.99in /  1015.5hPa Calm   3mph /  4.8km/h 62% 0.00in /  0mm 76 W/m2
17:39 75.1 °F /  23.9 °C 61.2 °F /  16.2 °C 29.99in /  1015.5hPa Calm     62% 0.00in /  0mm 74 W/m2
17:44 75.1 °F /  23.9 °C 61.5 °F /  16.4 °C 29.99in /  1015.5hPa Calm   1mph /  1.6km/h 62.6% 0.00in /  0mm 62 W/m2
17:49 75.1 °F /  23.9 °C 61.6 °F /  16.4 °C 29.99in /  1015.5hPa Calm   1mph /  1.6km/h 63% 0.00in /  0mm 58 W/m2
17:54 75 °F /  23.9 °C 61.3 °F /  16.3 °C 29.99in /  1015.5hPa South 0.1mph /  0.2km/h 2mph /  3.2km/h 62.6% 0.00in /  0mm 46 W/m2
17:59 74.8 °F /  23.8 °C 61.7 °F /  16.5 °C 29.99in /  1015.5hPa Calm   2mph /  3.2km/h 63.6% 0.00in /  0mm 33 W/m2
18:04 74.6 °F /  23.7 °C 61.8 °F /  16.6 °C 29.99in /  1015.5hPa Calm   2mph /  3.2km/h 64.3% 0.00in /  0mm 26 W/m2
18:09 74.5 °F /  23.6 °C 61.9 °F /  16.6 °C 29.99in /  1015.5hPa Calm     65% 0.00in /  0mm 23 W/m2
18:14 74.3 °F /  23.5 °C 62.2 °F /  16.8 °C 29.99in /  1015.5hPa Calm   1mph /  1.6km/h 65.9% 0.00in /  0mm 21 W/m2
18:19 74.1 °F /  23.4 °C 62.4 °F /  16.9 °C 29.99in /  1015.5hPa Calm   1mph /  1.6km/h 66.9% 0.00in /  0mm 21 W/m2
18:24 74 °F /  23.3 °C 62.7 °F /  17.1 °C 29.99in /  1015.5hPa Calm   1mph /  1.6km/h 67.8% 0.00in /  0mm 21 W/m2
18:29 73.8 °F /  23.2 °C 62.7 °F /  17.1 °C 29.99in /  1015.5hPa Calm   1mph /  1.6km/h 68.1% 0.00in /  0mm 21 W/m2
18:34 73.7 °F /  23.2 °C 62.9 °F /  17.2 °C 29.99in /  1015.5hPa SSW 0.5mph /  0.8km/h 2mph /  3.2km/h 69% 0.00in /  0mm 19 W/m2
18:39 73.6 °F /  23.1 °C 62.8 °F /  17.1 °C 30.00in /  1015.8hPa Calm   2mph /  3.2km/h 69% 0.00in /  0mm 16 W/m2
18:44 73.4 °F /  23 °C 62.8 °F /  17.1 °C 30.00in /  1015.8hPa Calm   2mph /  3.2km/h 69.4% 0.00in /  0mm 12 W/m2
18:49 73.3 °F /  22.9 °C 63 °F /  17.2 °C 29.99in /  1015.5hPa Calm   2mph /  3.2km/h 70% 0.00in /  0mm 9 W/m2
18:54 73.2 °F /  22.9 °C 63 °F /  17.2 °C 29.99in /  1015.5hPa Calm   2mph /  3.2km/h 70.5% 0.00in /  0mm 7 W/m2
18:59 73 °F /  22.8 °C 63.1 °F /  17.3 °C 29.99in /  1015.5hPa SSW 0.5mph /  0.8km/h 3mph /  4.8km/h 71% 0.00in /  0mm 0 W/m2
19:03 72.9 °F /  22.7 °C 63 °F /  17.2 °C 29.99in /  1015.5hPa Calm   3mph /  4.8km/h 71% 0.00in /  0mm 0 W/m2
Hartford County Weather
Compliments of Weather Underground - 2 mb